Time;durP1;ratioP1;P1;durP2;ratioP2;P2;SDS_P1;SDS_P2;PMS_P1;PMS_P2;Temp;Humidity;BMP_temperature;BMP_pressure;BME280_temperature;BME280_humidity;BME280_pressure;Samples;Min_cycle;Max_cycle;Signal;HPM_P1;HPM_P2
2022/10/27 00:00:10;;;;;;;21.30;12.33;;;;;;;9.00;100.00;99953.66;1706047;83;20927;-75
2022/10/27 00:02:43;;;;;;;20.65;12.95;;;;;;;8.99;100.00;99955.58;1702377;83;20931;-75
2022/10/27 00:05:10;;;;;;;18.17;11.57;;;;;;;8.98;100.00;99953.14;1715836;82;20955;-75
2022/10/27 00:07:37;;;;;;;15.55;10.85;;;;;;;8.97;100.00;99967.38;1711958;83;21057;-75
2022/10/27 00:10:05;;;;;;;22.35;12.23;;;;;;;8.97;100.00;99963.28;1714950;83;21497;-76
2022/10/27 00:12:33;;;;;;;18.40;11.15;;;;;;;8.98;100.00;99970.37;1710141;83;20931;-76
2022/10/27 00:14:59;;;;;;;26.97;12.75;;;;;;;8.97;100.00;99969.30;1708803;82;20922;-76
2022/10/27 00:17:27;;;;;;;28.75;11.97;;;;;;;8.95;100.00;99961.39;1702549;81;21550;-76
2022/10/27 00:19:54;;;;;;;15.93;10.40;;;;;;;8.95;100.00;99972.34;1676870;83;20983;-76
2022/10/27 00:22:22;;;;;;;23.70;11.48;;;;;;;8.95;100.00;99976.45;1700994;82;21381;-76
2022/10/27 00:24:49;;;;;;;29.32;11.08;;;;;;;8.94;100.00;99967.97;1697088;83;20950;-76
2022/10/27 00:27:16;;;;;;;24.85;11.00;;;;;;;8.92;100.00;99976.48;1706044;83;21567;-76
2022/10/27 00:29:44;;;;;;;22.93;12.65;;;;;;;8.93;100.00;99978.66;1710836;82;21080;-76
2022/10/27 00:32:10;;;;;;;21.10;12.13;;;;;;;8.94;100.00;99982.47;1696540;83;21014;-76
2022/10/27 00:34:37;;;;;;;22.98;12.37;;;;;;;8.94;100.00;99992.06;1707904;82;21115;-76
2022/10/27 00:37:03;;;;;;;21.57;13.28;;;;;;;8.93;100.00;99986.33;1689012;83;21079;-75
2022/10/27 00:39:30;;;;;;;23.30;12.70;;;;;;;8.93;100.00;99990.43;1680532;83;20925;-76
2022/10/27 00:41:57;;;;;;;22.35;12.20;;;;;;;8.94;100.00;99995.35;1689336;83;21033;-76
2022/10/27 00:44:37;;;;;;;25.37;12.37;;;;;;;8.94;100.00;99996.16;1699930;82;20946;-75
2022/10/27 00:47:22;;;;;;;19.05;11.50;;;;;;;8.97;100.00;99998.05;1694214;82;21888;-77
2022/10/27 00:50:09;;;;;;;19.20;11.78;;;;;;;8.98;100.00;100003.24;1684223;83;20996;-76
2022/10/27 00:52:46;;;;;;;22.00;11.57;;;;;;;9.01;100.00;100000.47;1690060;83;20884;-75
2022/10/27 00:55:20;;;;;;;21.87;11.60;;;;;;;9.03;100.00;100000.44;1666997;83;21139;-75
2022/10/27 00:57:48;;;;;;;19.42;11.70;;;;;;;9.06;100.00;100003.14;1709143;82;20943;-76
2022/10/27 01:00:15;;;;;;;18.92;11.80;;;;;;;9.07;100.00;99999.30;1701173;81;21573;-76
2022/10/27 01:02:42;;;;;;;16.35;10.23;;;;;;;9.07;100.00;99997.37;1689417;83;20952;-75
2022/10/27 01:05:19;;;;;;;31.35;12.37;;;;;;;9.08;100.00;100000.37;1685446;83;20967;-75
2022/10/27 01:07:47;;;;;;;18.32;10.88;;;;;;;9.09;100.00;100000.63;1696843;82;21047;-75
2022/10/27 01:10:14;;;;;;;21.65;9.98;;;;;;;9.11;100.00;100002.52;1689490;83;21028;-75
2022/10/27 01:12:41;;;;;;;20.92;10.78;;;;;;;9.12;100.00;100002.78;1677730;85;21150;-76
2022/10/27 01:15:08;;;;;;;18.95;11.70;;;;;;;9.13;100.00;100003.59;1662539;84;20967;-75
2022/10/27 01:18:01;;;;;;;18.85;11.25;;;;;;;9.13;100.00;100005.78;1686527;83;21073;-76
2022/10/27 01:21:00;;;;;;;23.25;11.65;;;;;;;9.13;100.00;100012.63;1701450;83;21078;-75
2022/10/27 01:23:50;;;;;;;19.25;11.05;;;;;;;9.14;100.00;100010.70;1694704;83;21035;-75
2022/10/27 01:26:42;;;;;;;29.98;11.55;;;;;;;9.16;100.00;100013.41;1693858;83;21170;-74
2022/10/27 01:29:45;;;;;;;17.70;9.75;;;;;;;9.18;100.00;100004.89;1703731;83;20990;-74
2022/10/27 01:32:34;;;;;;;21.48;10.60;;;;;;;9.18;100.00;100009.00;1669136;84;21433;-74
2022/10/27 01:35:31;;;;;;;20.43;10.75;;;;;;;9.19;100.00;100010.63;1699274;83;21088;-74
2022/10/27 01:38:20;;;;;;;23.18;11.75;;;;;;;9.19;100.00;100011.45;1684796;83;21058;-75
2022/10/27 01:41:07;;;;;;;14.00;9.55;;;;;;;9.19;100.00;100016.92;1694093;83;21369;-74
2022/10/27 01:43:40;;;;;;;19.90;11.33;;;;;;;9.16;100.00;100014.77;1691240;83;21006;-75
2022/10/27 01:46:10;;;;;;;26.23;11.83;;;;;;;9.18;100.00;100026.80;1698296;82;21000;-75
2022/10/27 01:48:40;;;;;;;18.80;10.30;;;;;;;9.18;100.00;100026.25;1707331;82;20936;-75
2022/10/27 01:51:12;;;;;;;15.15;9.93;;;;;;;9.19;100.00;100025.14;1700030;83;21054;-75
2022/10/27 01:53:47;;;;;;;20.48;10.75;;;;;;;9.20;100.00;100027.33;1674080;83;20981;-75
2022/10/27 01:56:55;;;;;;;20.57;9.90;;;;;;;9.20;100.00;100025.41;1653410;84;21000;-74
2022/10/27 01:59:48;;;;;;;20.25;10.65;;;;;;;9.20;100.00;100025.41;1700115;83;21076;-77
2022/10/27 02:02:30;;;;;;;17.92;10.88;;;;;;;9.22;100.00;100025.92;1666567;83;21055;-72
2022/10/27 02:05:22;;;;;;;26.25;10.82;;;;;;;9.22;100.00;100027.30;1695385;82;21183;-73
2022/10/27 02:08:03;;;;;;;21.10;10.90;;;;;;;9.24;100.00;100033.26;1665617;83;21082;-72
2022/10/27 02:10:45;;;;;;;22.67;10.78;;;;;;;9.25;100.00;100025.86;1710653;83;21539;-73
2022/10/27 02:13:16;;;;;;;17.90;10.30;;;;;;;9.26;100.00;100035.15;1693321;83;21037;-73
2022/10/27 02:15:52;;;;;;;19.95;10.20;;;;;;;9.30;100.00;100037.30;1699411;83;21029;-74
2022/10/27 02:18:28;;;;;;;22.48;10.30;;;;;;;9.32;100.00;100042.75;1681984;83;21046;-72
2022/10/27 02:21:02;;;;;;;19.85;11.05;;;;;;;9.34;100.00;100043.27;1692544;83;21993;-72
2022/10/27 02:23:35;;;;;;;15.60;9.40;;;;;;;9.36;100.00;100048.45;1697428;83;21105;-74
2022/10/27 02:26:28;;;;;;;19.30;9.10;;;;;;;9.34;100.00;100047.93;1698572;83;21000;-73
2022/10/27 02:29:08;;;;;;;18.27;9.88;;;;;;;9.33;100.00;100045.75;1675314;83;21438;-73
2022/10/27 02:31:40;;;;;;;19.90;9.58;;;;;;;9.33;100.00;100047.12;1683372;82;20967;-75
2022/10/27 02:34:15;;;;;;;18.95;10.28;;;;;;;9.34;100.00;100050.67;1700948;82;21793;-74
2022/10/27 02:36:45;;;;;;;21.15;10.13;;;;;;;9.37;100.00;100051.45;1660651;85;21008;-75
2022/10/27 02:39:21;;;;;;;18.00;9.43;;;;;;;9.38;100.00;100052.53;1656781;84;20964;-73
2022/10/27 02:41:49;;;;;;;17.05;9.85;;;;;;;9.38;100.00;100053.08;1684959;84;20907;-76
2022/10/27 02:44:20;;;;;;;15.93;10.08;;;;;;;9.37;100.00;100057.75;1738353;80;21023;-74
2022/10/27 02:46:49;;;;;;;13.48;9.25;;;;;;;9.37;100.00;100055.56;1765141;80;21085;-75
2022/10/27 02:49:16;;;;;;;23.45;9.38;;;;;;;9.37;100.00;100061.86;1738355;80;20920;-73
2022/10/27 02:51:45;;;;;;;16.05;9.28;;;;;;;9.38;100.00;100058.56;1710533;83;21003;-73
2022/10/27 02:54:17;;;;;;;18.25;9.50;;;;;;;9.37;100.00;100054.19;1712649;83;20991;-72
2022/10/27 02:56:55;;;;;;;16.07;9.15;;;;;;;9.36;100.00;100056.67;1711025;83;21009;-73
2022/10/27 02:59:27;;;;;;;18.40;9.15;;;;;;;9.36;100.00;100062.15;1707252;83;21158;-73
2022/10/27 03:01:59;;;;;;;18.07;9.13;;;;;;;9.35;100.00;100059.15;1709974;83;20988;-73
2022/10/27 03:04:31;;;;;;;13.55;8.28;;;;;;;9.35;100.00;100064.63;1713635;82;21028;-74
2022/10/27 03:07:02;;;;;;;15.93;8.83;;;;;;;9.36;100.00;100067.63;1693202;82;21249;-72
2022/10/27 03:09:35;;;;;;;12.95;8.00;;;;;;;9.37;100.00;100073.38;1696941;83;21111;-75
2022/10/27 03:12:04;;;;;;;17.70;8.40;;;;;;;9.34;100.00;100065.74;1661410;83;20900;-75
2022/10/27 03:14:37;;;;;;;19.75;7.95;;;;;;;9.32;100.00;100069.33;1687761;83;20986;-74
2022/10/27 03:17:11;;;;;;;16.10;7.70;;;;;;;9.31;100.00;100071.25;1691890;82;21059;-75
2022/10/27 03:19:38;;;;;;;20.23;7.87;;;;;;;9.31;100.00;100071.81;1686827;83;22433;-76
2022/10/27 03:22:10;;;;;;;15.45;7.75;;;;;;;9.28;100.00;100078.14;1699966;83;21038;-75
2022/10/27 03:24:42;;;;;;;12.60;6.97;;;;;;;9.29;100.00;100080.32;1658633;85;21055;-76
2022/10/27 03:27:14;;;;;;;12.28;7.10;;;;;;;9.26;100.00;100089.94;1718001;83;20839;-74
2022/10/27 03:29:42;;;;;;;11.35;6.95;;;;;;;9.27;100.00;100085.28;1692475;82;22141;-73
2022/10/27 03:32:12;;;;;;;11.88;6.45;;;;;;;9.27;100.00;100087.47;1691845;83;21116;-73
2022/10/27 03:34:41;;;;;;;13.08;6.72;;;;;;;9.25;100.00;100084.20;1699550;82;21128;-73
2022/10/27 03:37:15;;;;;;;14.65;7.10;;;;;;;9.27;100.00;100090.20;1700228;83;21557;-74
2022/10/27 03:39:46;;;;;;;13.50;7.08;;;;;;;9.27;100.00;100083.36;1691644;83;20907;-72
2022/10/27 03:42:17;;;;;;;15.18;7.33;;;;;;;9.26;100.00;100092.69;1662133;83;21702;-72
2022/10/27 03:44:46;;;;;;;16.02;7.47;;;;;;;9.25;100.00;100093.80;1696264;82;21072;-73
2022/10/27 03:47:16;;;;;;;19.23;6.90;;;;;;;9.24;100.00;100088.05;1659966;85;21085;-71
2022/10/27 03:49:44;;;;;;;14.23;7.05;;;;;;;9.23;100.00;100096.04;1673666;85;21170;-71
2022/10/27 03:52:13;;;;;;;15.35;7.00;;;;;;;9.23;100.00;100096.59;1654572;84;21031;-71
2022/10/27 03:54:57;;;;;;;15.53;7.03;;;;;;;9.22;100.00;100095.78;1733970;82;21426;-71
2022/10/27 03:57:23;;;;;;;13.43;7.10;;;;;;;9.23;100.00;100091.93;1736387;82;20990;-71
2022/10/27 03:59:56;;;;;;;12.20;7.25;;;;;;;9.23;100.00;100100.15;1733139;81;21470;-71
2022/10/27 04:02:37;;;;;;;14.53;7.97;;;;;;;9.23;100.00;100096.59;1696829;81;20932;-71
2022/10/27 04:05:14;;;;;;;12.73;7.08;;;;;;;9.23;100.00;100103.45;1732660;81;21153;-71
2022/10/27 04:07:41;;;;;;;19.77;8.23;;;;;;;9.22;100.00;100106.73;1747808;81;20988;-71
2022/10/27 04:10:11;;;;;;;18.35;7.58;;;;;;;9.22;100.00;100104.00;1730519;82;21070;-71
2022/10/27 04:12:50;;;;;;;15.05;7.70;;;;;;;9.23;100.00;100102.08;1729197;82;21351;-71
2022/10/27 04:15:24;;;;;;;9.40;6.70;;;;;;;9.22;100.00;100097.70;1688114;82;21540;-71
2022/10/27 04:18:03;;;;;;;16.25;7.50;;;;;;;9.20;100.00;100102.66;1694064;83;21641;-71
2022/10/27 04:20:35;;;;;;;16.05;8.15;;;;;;;9.18;100.00;100111.17;1700579;83;21491;-71
2022/10/27 04:23:06;;;;;;;15.65;6.70;;;;;;;9.14;100.00;100114.23;1698668;83;21027;-70
2022/10/27 04:25:36;;;;;;;18.23;7.50;;;;;;;9.11;100.00;100114.81;1702099;83;20893;-71
2022/10/27 04:28:10;;;;;;;16.55;7.15;;;;;;;9.11;100.00;100114.81;1698581;83;21857;-73
2022/10/27 04:30:44;;;;;;;14.63;8.20;;;;;;;9.10;100.00;100118.66;1695084;83;20927;-73
2022/10/27 04:33:19;;;;;;;14.35;6.85;;;;;;;9.09;100.00;100117.03;1731608;81;21439;-72
2022/10/27 04:35:50;;;;;;;15.05;7.00;;;;;;;9.05;100.00;100118.72;1731564;82;21158;-74
2022/10/27 04:38:18;;;;;;;13.43;7.15;;;;;;;9.02;100.00;100117.94;1697975;82;20970;-74
2022/10/27 04:40:49;;;;;;;12.45;6.90;;;;;;;9.00;100.00;100100.16;1705439;81;20907;-74
2022/10/27 04:43:19;;;;;;;16.27;6.65;;;;;;;8.98;100.00;100120.17;1713793;81;21007;-73
2022/10/27 04:45:52;;;;;;;18.55;8.70;;;;;;;8.96;100.00;100116.91;1687654;81;20911;-75
2022/10/27 04:48:30;;;;;;;16.05;7.60;;;;;;;8.94;100.00;100121.31;1722581;81;21542;-75
2022/10/27 04:51:02;;;;;;;11.90;6.70;;;;;;;8.93;100.00;100123.23;1691234;82;21112;-73
2022/10/27 04:53:31;;;;;;;15.00;7.33;;;;;;;8.88;100.00;100124.66;1730503;81;21443;-79
2022/10/27 04:56:00;;;;;;;19.07;8.25;;;;;;;8.87;100.00;100123.58;1734893;81;20953;-76
2022/10/27 04:58:26;;;;;;;14.45;7.87;;;;;;;8.86;100.00;100130.97;1729861;81;21643;-74
2022/10/27 05:00:55;;;;;;;16.97;7.65;;;;;;;8.86;100.00;100126.86;1725275;81;21581;-75
2022/10/27 05:03:22;;;;;;;13.32;7.95;;;;;;;8.88;100.00;100132.05;1730949;82;21031;-71
2022/10/27 05:05:54;;;;;;;16.45;8.10;;;;;;;8.89;100.00;100132.31;1718324;82;21446;-72
2022/10/27 05:08:22;;;;;;;15.70;7.95;;;;;;;8.89;100.00;100132.31;1721685;82;21450;-72
2022/10/27 05:10:51;;;;;;;14.30;8.05;;;;;;;8.88;100.00;100138.90;1731634;82;21011;-72
2022/10/27 05:13:20;;;;;;;12.37;7.58;;;;;;;8.88;100.00;100143.82;1724663;82;21050;-72
2022/10/27 05:15:50;;;;;;;15.80;7.97;;;;;;;8.88;100.00;100142.45;1709958;82;21547;-71
2022/10/27 05:18:17;;;;;;;17.42;9.50;;;;;;;8.88;100.00;100148.48;1734797;81;21122;-74
2022/10/27 05:20:50;;;;;;;17.50;8.70;;;;;;;8.88;100.00;100147.11;1726167;82;21203;-72
2022/10/27 05:23:17;;;;;;;;;;;;;;;8.85;100.00;100151.80;1728715;82;21074;-73
2022/10/27 05:25:51;;;;;;;16.62;9.18;;;;;;;8.84;100.00;100148.80;1732509;81;20461;-70
2022/10/27 05:28:19;;;;;;;16.65;8.18;;;;;;;8.83;100.00;100152.09;1728539;81;20932;-69
2022/10/27 05:30:51;;;;;;;20.25;8.60;;;;;;;8.83;100.00;100160.85;1724339;82;21150;-69
2022/10/27 05:33:21;;;;;;;18.70;9.25;;;;;;;8.84;100.00;100155.09;1728713;82;20932;-69
2022/10/27 05:35:49;;;;;;;19.92;9.65;;;;;;;8.86;100.00;100163.83;1708692;81;21086;-71
2022/10/27 05:38:45;;;;;;;29.82;9.53;;;;;;;8.84;100.00;100166.59;1692239;83;20990;-73
2022/10/27 05:41:12;;;;;;;19.57;8.85;;;;;;;8.82;100.00;100173.72;1693722;83;21423;-73
2022/10/27 05:43:40;;;;;;;16.73;9.43;;;;;;;8.85;100.00;100179.17;1698572;83;21031;-72
2022/10/27 05:46:07;;;;;;;17.50;10.30;;;;;;;8.84;100.00;100176.17;1699669;83;20991;-72
2022/10/27 05:48:34;;;;;;;21.30;9.78;;;;;;;8.80;100.00;100188.80;1692289;83;21056;-73
2022/10/27 05:51:00;;;;;;;18.20;10.00;;;;;;;8.77;100.00;100195.67;1690971;83;20982;-71
2022/10/27 05:53:27;;;;;;;18.95;9.25;;;;;;;8.74;100.00;100194.06;1678424;85;20959;-71
2022/10/27 05:55:55;;;;;;;15.75;8.93;;;;;;;8.70;100.00;100195.19;1679282;84;21493;-70
2022/10/27 05:58:21;;;;;;;17.73;10.03;;;;;;;8.68;100.00;100197.95;1683421;84;21090;-71
2022/10/27 06:00:48;;;;;;;20.10;10.53;;;;;;;8.66;100.00;100202.38;1689792;84;20971;-72
2022/10/27 06:03:22;;;;;;;18.82;10.03;;;;;;;8.67;100.00;100199.05;1676028;85;21011;-71
2022/10/27 06:05:49;;;;;;;18.85;9.73;;;;;;;8.68;100.00;100204.23;1677829;84;20932;-68
2022/10/27 06:08:17;;;;;;;22.52;9.23;;;;;;;8.71;100.00;100205.59;1678332;83;21795;-70
2022/10/27 06:10:45;;;;;;;19.57;10.00;;;;;;;8.72;100.00;100209.95;1688873;84;20943;-71
2022/10/27 06:13:14;;;;;;;21.57;10.25;;;;;;;8.72;100.00;100210.77;1681471;83;21466;-71
2022/10/27 06:15:41;;;;;;;18.02;9.38;;;;;;;8.72;100.00;100216.80;1720426;82;21042;-70
2022/10/27 06:18:09;;;;;;;15.75;9.85;;;;;;;8.74;100.00;100203.64;1712041;82;21059;-75
2022/10/27 06:20:36;;;;;;;20.50;10.10;;;;;;;8.76;100.00;100206.91;1635389;86;21196;-73
2022/10/27 06:23:02;;;;;;;20.72;9.88;;;;;;;8.80;100.00;100212.08;1621415;87;20910;-70
2022/10/27 06:25:29;;;;;;;18.90;10.32;;;;;;;8.82;100.00;100209.31;1651591;85;21510;-71
2022/10/27 06:27:55;;;;;;;22.32;9.60;;;;;;;8.87;100.00;100207.08;1644237;86;21057;-70
2022/10/27 06:30:22;;;;;;;16.25;10.15;;;;;;;8.98;100.00;100211.36;1647123;86;21046;-73
2022/10/27 06:32:49;;;;;;;19.10;9.80;;;;;;;9.12;100.00;100213.69;1650245;87;21787;-71
2022/10/27 06:35:17;;;;;;;19.57;9.93;;;;;;;9.31;100.00;100207.43;1646690;86;20944;-72
2022/10/27 06:37:44;;;;;;;17.92;9.65;;;;;;;9.53;100.00;100211.83;1644211;87;21051;-71
2022/10/27 06:40:14;;;;;;;20.60;9.65;;;;;;;9.68;100.00;100206.16;1653276;84;21118;-72
2022/10/27 06:42:41;;;;;;;16.17;10.15;;;;;;;9.76;100.00;100208.26;1670824;84;21035;-74
2022/10/27 06:45:10;;;;;;;18.87;10.00;;;;;;;9.80;100.00;100203.81;1642985;86;20996;-72
2022/10/27 06:47:38;;;;;;;18.60;10.10;;;;;;;9.81;100.00;100210.94;1671635;85;20984;-72
2022/10/27 06:50:06;;;;;;;16.23;10.80;;;;;;;9.82;100.00;100213.91;1669750;85;21131;-74
2022/10/27 06:52:37;;;;;;;20.10;9.70;;;;;;;9.82;100.00;100214.48;1663828;85;21020;-71
2022/10/27 06:55:05;;;;;;;19.60;10.20;;;;;;;9.81;100.00;100218.34;1668360;85;20985;-72
2022/10/27 06:57:42;;;;;;;18.42;9.93;;;;;;;9.81;100.00;100219.72;1665496;85;21143;-72
2022/10/27 07:00:11;;;;;;;19.37;9.48;;;;;;;9.79;100.00;100220.01;1664310;85;21554;-73
2022/10/27 07:02:38;;;;;;;21.35;9.70;;;;;;;9.76;100.00;100226.08;1669961;85;21463;-75
2022/10/27 07:05:05;;;;;;;16.07;9.20;;;;;;;9.72;100.00;100225.03;1666348;85;21063;-70
2022/10/27 07:07:32;;;;;;;20.70;9.90;;;;;;;9.74;100.00;100230.22;1685304;84;20940;-71
2022/10/27 07:09:59;;;;;;;20.02;10.58;;;;;;;9.80;100.00;100233.16;1677758;84;22207;-71
2022/10/27 07:12:27;;;;;;;20.92;10.65;;;;;;;9.87;100.00;100235.78;1699317;83;20992;-71
2022/10/27 07:14:55;;;;;;;18.55;9.95;;;;;;;9.90;100.00;100233.81;1676699;84;33525;-71
2022/10/27 07:17:22;;;;;;;24.05;10.43;;;;;;;9.94;100.00;100239.53;1688495;83;21094;-71
2022/10/27 07:19:49;;;;;;;20.68;9.28;;;;;;;9.99;100.00;100232.61;1692736;84;20887;-68
2022/10/27 07:22:15;;;;;;;21.02;10.00;;;;;;;10.03;100.00;100231.46;1669193;84;21863;-73
2022/10/27 07:24:42;;;;;;;18.40;9.00;;;;;;;10.08;100.00;100231.39;1678678;84;21044;-71
2022/10/27 07:27:09;;;;;;;19.82;9.53;;;;;;;10.16;100.00;100234.29;1677823;83;21026;-71
2022/10/27 07:29:35;;;;;;;16.32;10.08;;;;;;;10.22;100.00;100240.55;1675330;84;21070;-74
2022/10/27 07:32:02;;;;;;;16.90;8.63;;;;;;;10.23;100.00;100236.70;1680585;83;21040;-72
2022/10/27 07:34:29;;;;;;;16.02;10.00;;;;;;;10.24;100.00;100241.08;1674907;84;21533;-73
2022/10/27 07:36:56;;;;;;;19.17;10.50;;;;;;;10.28;100.00;100242.67;1677484;84;21576;-75
2022/10/27 07:39:23;;;;;;;19.02;9.93;;;;;;;10.30;100.00;100246.75;1672403;84;21138;-74
2022/10/27 07:41:50;;;;;;;15.72;9.48;;;;;;;10.36;100.00;100245.56;1675692;84;20994;-72
2022/10/27 07:44:17;;;;;;;19.42;9.53;;;;;;;10.37;100.00;100246.38;1685823;84;21031;-74
2022/10/27 07:46:44;;;;;;;17.35;9.68;;;;;;;10.39;100.00;100255.13;1674119;84;21109;-72
2022/10/27 07:49:12;;;;;;;23.87;8.88;;;;;;;10.40;100.00;100254.80;1675163;85;21042;-72
2022/10/27 07:51:38;;;;;;;17.73;9.33;;;;;;;10.45;100.00;100250.61;1672732;84;21112;-75
2022/10/27 07:54:05;;;;;;;18.60;8.53;;;;;;;10.53;100.00;100259.55;1677407;84;21063;-72
2022/10/27 07:56:35;;;;;;;12.00;8.40;;;;;;;10.67;100.00;100264.28;1674201;84;21098;-83
2022/10/27 07:59:01;;;;;;;14.40;9.00;;;;;;;10.75;100.00;100252.62;1672312;84;21175;-69
2022/10/27 08:01:27;;;;;;;16.45;8.98;;;;;;;10.83;100.00;100260.18;1679362;84;21018;-72
2022/10/27 08:03:54;;;;;;;16.93;8.68;;;;;;;10.97;100.00;100262.97;1679384;84;21067;-72
2022/10/27 08:06:20;;;;;;;20.23;8.55;;;;;;;11.08;100.00;100263.03;1677065;84;21558;-72
2022/10/27 08:08:47;;;;;;;14.55;8.40;;;;;;;11.20;100.00;100261.43;1676800;84;20966;-71
2022/10/27 08:11:14;;;;;;;15.05;7.65;;;;;;;11.33;100.00;100265.88;1686374;85;21530;-72
2022/10/27 08:13:40;;;;;;;16.65;8.98;;;;;;;11.41;100.00;100266.00;1682195;84;21007;-70
2022/10/27 08:16:07;;;;;;;15.53;8.85;;;;;;;11.43;100.00;100273.94;1662753;84;21031;-71
2022/10/27 08:18:34;;;;;;;16.95;8.18;;;;;;;11.47;100.00;100274.96;1651863;86;21086;-71
2022/10/27 08:21:03;;;;;;;14.25;8.55;;;;;;;11.52;100.00;100269.38;1632067;86;21036;-68
2022/10/27 08:23:30;;;;;;;16.67;8.28;;;;;;;11.58;100.00;100276.38;1619425;88;21820;-68
2022/10/27 08:25:56;;;;;;;17.30;8.30;;;;;;;11.62;100.00;100274.64;1617766;88;20950;-70
2022/10/27 08:28:23;;;;;;;14.38;8.03;;;;;;;11.71;100.00;100282.44;1631644;86;20945;-70
2022/10/27 08:30:51;;;;;;;12.35;6.87;;;;;;;11.73;100.00;100278.83;1623602;86;22259;-71
2022/10/27 08:33:18;;;;;;;14.28;7.95;;;;;;;11.77;100.00;100285.94;1624807;86;21073;-73
2022/10/27 08:35:45;;;;;;;12.78;7.45;;;;;;;11.81;100.00;100278.14;1629693;86;21130;-68
2022/10/27 08:38:13;;;;;;;17.23;7.37;;;;;;;11.81;100.00;100282.27;1634891;86;21051;-67
2022/10/27 08:41:04;;;;;;;10.58;6.75;;;;;;;11.82;100.00;100289.41;1635709;85;21692;-69
2022/10/27 08:43:58;;;;;;;16.12;7.30;;;;;;;11.84;100.00;100287.72;1627050;86;21037;-68
2022/10/27 08:46:56;;;;;;;10.95;6.62;;;;;;;11.84;100.00;100291.84;1625034;85;21072;-72
2022/10/27 08:49:46;;;;;;;11.75;5.92;;;;;;;11.83;100.00;100291.59;1594738;85;21998;-72
2022/10/27 08:52:39;;;;;;;12.20;6.87;;;;;;;11.84;100.00;100302.30;1636015;86;20976;-71
2022/10/27 08:55:21;;;;;;;10.23;6.85;;;;;;;11.79;100.00;100294.14;1631286;86;21112;-73
2022/10/27 08:58:11;;;;;;;18.77;6.92;;;;;;;11.89;100.00;100302.75;1625375;86;21107;-73
2022/10/27 09:01:02;;;;;;;10.90;6.27;;;;;;;12.04;100.00;100305.75;1630727;86;21708;-69
2022/10/27 09:04:06;;;;;;;11.08;6.17;;;;;;;12.18;100.00;100305.97;1635250;86;21168;-71
2022/10/27 09:06:58;;;;;;;9.48;5.60;;;;;;;12.32;100.00;100304.57;1635475;85;21159;-78
2022/10/27 09:09:56;;;;;;;11.70;6.25;;;;;;;12.42;100.00;100308.48;1628794;86;21035;-70
2022/10/27 09:12:51;;;;;;;11.45;5.60;;;;;;;12.41;100.00;100311.54;1633984;86;21767;-74
2022/10/27 09:15:43;;;;;;;9.60;6.15;;;;;;;12.52;100.00;100297.23;1595861;85;21111;-71
2022/10/27 09:18:33;;;;;;;7.95;5.42;;;;;;;12.69;100.00;100302.64;1613877;87;21162;-73
2022/10/27 09:21:02;;;;;;;10.58;5.97;;;;;;;12.81;100.00;100304.26;1676655;85;20912;-72
2022/10/27 09:23:37;;;;;;;12.07;5.65;;;;;;;12.94;100.00;100302.02;1678006;83;21009;-72
2022/10/27 09:26:04;;;;;;;11.10;5.62;;;;;;;13.04;100.00;100304.52;1681389;84;21549;-69
2022/10/27 09:28:45;;;;;;;12.18;6.40;;;;;;;13.00;100.00;100310.41;1701810;83;21114;-75
2022/10/27 09:31:16;;;;;;;8.10;4.83;;;;;;;12.88;100.00;100301.31;1704007;82;21165;-72
2022/10/27 09:33:48;;;;;;;10.95;5.17;;;;;;;12.85;100.00;100304.70;1663745;85;21102;-73
2022/10/27 09:36:15;;;;;;;12.90;5.92;;;;;;;12.89;100.00;100304.89;1671003;83;21034;-76
2022/10/27 09:38:41;;;;;;;11.95;5.20;;;;;;;12.89;100.00;100306.27;1677665;83;21025;-74
2022/10/27 09:41:09;;;;;;;11.18;5.53;;;;;;;12.92;100.00;100298.75;1656215;85;21058;-72
2022/10/27 09:43:36;;;;;;;9.48;5.28;;;;;;;12.97;100.00;100298.63;1642535;86;21241;-75
2022/10/27 09:46:26;;;;;;;8.63;4.90;;;;;;;13.10;100.00;100310.72;1656117;85;20991;-72
2022/10/27 09:49:01;;;;;;;8.80;5.22;;;;;;;13.25;100.00;100308.98;1660184;85;21569;-77
2022/10/27 09:51:33;;;;;;;6.87;4.17;;;;;;;13.33;100.00;100302.68;1658697;85;21042;-75
2022/10/27 09:54:02;;;;;;;7.50;4.37;;;;;;;13.33;98.67;100302.68;1658550;85;21041;-70
2022/10/27 09:56:31;;;;;;;11.88;4.62;;;;;;;13.33;99.41;100303.25;1659619;85;21223;-77
2022/10/27 09:59:02;;;;;;;9.93;4.37;;;;;;;13.29;98.12;100305.01;1656215;86;21043;-72
2022/10/27 10:01:54;;;;;;;6.83;4.28;;;;;;;13.17;98.49;100306.42;1654256;85;21030;-72
2022/10/27 10:04:28;;;;;;;8.05;4.60;;;;;;;13.10;98.57;100307.40;1654751;85;21521;-72
2022/10/27 10:06:59;;;;;;;11.08;4.55;;;;;;;13.10;99.64;100304.64;1657499;85;21209;-74
2022/10/27 10:09:31;;;;;;;13.83;4.97;;;;;;;13.11;98.60;100302.70;1661820;85;21402;-78
2022/10/27 10:12:24;;;;;;;11.78;4.95;;;;;;;13.13;100.00;100308.71;1660127;86;21537;-71
2022/10/27 10:15:10;;;;;;;13.18;4.92;;;;;;;13.19;99.51;100307.48;1657596;85;20908;-74
2022/10/27 10:17:42;;;;;;;9.00;4.67;;;;;;;13.25;98.20;100300.72;1636356;86;21027;-76
2022/10/27 10:20:32;;;;;;;10.13;5.15;;;;;;;13.36;99.05;100302.05;1658211;85;20971;-74
2022/10/27 10:23:02;;;;;;;13.62;5.65;;;;;;;13.40;96.95;100292.02;1693689;82;21623;-72
2022/10/27 10:25:32;;;;;;;9.58;4.53;;;;;;;13.40;96.74;100297.53;1707242;83;21010;-72
2022/10/27 10:28:04;;;;;;;7.37;4.50;;;;;;;13.41;97.91;100301.10;1718280;82;20987;-71
2022/10/27 10:30:34;;;;;;;7.33;4.20;;;;;;;13.44;97.42;100307.37;1705555;82;21539;-71
2022/10/27 10:33:03;;;;;;;14.85;4.15;;;;;;;13.43;97.12;100299.66;1723721;82;21499;-71
2022/10/27 10:35:47;;;;;;;11.83;3.87;;;;;;;13.39;96.88;100295.09;1709110;82;21020;-74
2022/10/27 10:38:30;;;;;;;8.63;4.30;;;;;;;13.36;97.68;100299.86;1681790;84;21428;-72
2022/10/27 10:41:15;;;;;;;14.68;4.58;;;;;;;13.34;96.89;100302.93;1662237;85;21051;-70
2022/10/27 10:43:42;;;;;;;13.80;5.00;;;;;;;13.28;97.46;100305.60;1665057;84;21329;-70
2022/10/27 10:46:21;;;;;;;9.33;4.17;;;;;;;13.26;98.08;100313.38;1663670;85;20996;-72
2022/10/27 10:48:59;;;;;;;9.70;4.25;;;;;;;13.27;97.59;100311.43;1653088;85;21246;-71
2022/10/27 10:51:54;;;;;;;10.28;4.00;;;;;;;13.20;98.26;100314.06;1649512;85;20933;-70
2022/10/27 10:57:47;;;;;;;10.10;4.83;;;;;;;13.15;97.31;100321.05;1687709;84;20940;-71
2022/10/27 11:03:17;;;;;;;11.45;4.62;;;;;;;13.10;99.21;100317.61;1664218;84;21567;-73
2022/10/27 11:05:55;;;;;;;14.65;5.00;;;;;;;13.12;98.47;100310.66;1672697;84;20995;-72
2022/10/27 11:08:24;;;;;;;13.13;4.70;;;;;;;13.10;97.74;100314.29;1672819;85;21031;-72
2022/10/27 11:10:57;;;;;;;15.20;4.53;;;;;;;13.09;99.27;100302.20;1667910;84;21558;-75
2022/10/27 11:13:39;;;;;;;16.82;5.65;;;;;;;13.12;99.44;100306.52;1660478;84;20962;-75
2022/10/27 11:16:09;;;;;;;9.90;4.20;;;;;;;13.17;99.97;100313.31;1688678;84;21163;-75
2022/10/27 11:18:47;;;;;;;9.60;4.40;;;;;;;13.19;97.62;100308.87;1655643;85;20937;-72
2022/10/27 11:21:38;;;;;;;12.82;4.42;;;;;;;13.12;97.12;100307.90;1685721;84;20907;-74
2022/10/27 11:25:01;;;;;;;14.03;5.00;;;;;;;13.07;98.55;100305.83;1685058;84;21497;-72
2022/10/27 11:27:59;;;;;;;19.70;5.65;;;;;;;13.07;98.62;100308.03;1665571;85;21039;-73
2022/10/27 11:30:23;;;;;;;;;;;;;;;13.10;99.01;100315.67;1666770;85;21143;-75
2022/10/27 11:33:28;;;;;;;14.35;4.50;;;;;;;13.13;100.00;100313.66;1657932;84;20431;-74
2022/10/27 11:36:17;;;;;;;12.88;4.55;;;;;;;13.18;99.21;100313.56;1663333;84;21040;-74
2022/10/27 11:39:09;;;;;;;12.85;4.72;;;;;;;13.18;98.29;100316.33;1665717;84;21636;-75
2022/10/27 11:41:51;;;;;;;10.32;4.62;;;;;;;13.13;98.96;100316.98;1650561;83;21566;-76
2022/10/27 11:44:47;;;;;;;12.95;5.40;;;;;;;13.13;99.21;100321.12;1651450;83;21637;-77
2022/10/27 11:47:29;;;;;;;9.15;5.08;;;;;;;13.11;99.15;100315.11;1635774;85;20940;-76
2022/10/27 11:50:07;;;;;;;13.78;4.62;;;;;;;13.08;98.60;100314.35;1647791;84;21114;-76